Augustenborg, Denmark
Current Conditions -  °F | °C
As of 12:20 AM on Monday 22 Dec 2014 (Local Time) from ETGG Reporting Station
Moderate Rain Moderate Rain  
Wind Chill: 36°   Ceiling: 700
Heat Index: 46°   Visibility: 2.5mi
Dew Point: 45°   Wind: 39mph
Humidity: 93%   Direction: 250°WSW
Pressure: 29.68"   Gusts: 55mph
Location:  54.95°N, 9.87°E
Report Text: ETGG 212320Z 25034G48KT 4000 RA BR BKN007 08/07 Q1005 GRN
Loading
Personal Weather Stations






























Interactive Weather Map New forecast layout! Learn more

10-Day Weather Forecast

Advertisements
Track Severe Weather on mobile